Decoded Metar for KHWD (HAYWARD in CA, USA) (IATA:HWD) | Meteo·Mobile Aviation Weather
aviador You're here:

KHWD Decoded Metar

HAYWARD in CA, USA
Report Time2018-11-20 04:54:00
UTC Time2018-11-20 05:54:23
Flight Rules mvfr MVFR
Wind060° at 06 kt
W.Decomp.*RWY 10: 3.4 kt HW 4.9 kt LCW
W.Rank060° ranks 8
Current wind is above 060° avg. (4.3)
Visibility4828 m
Phenomena:Smoke
Haze
Clouds:N/A
Expected CloudBase > 4,800 ft AGL from Temp-Dew spread
CeilingNone
Temp12°C (ISA -3)
Dew Point00°C (44% RH)
AAT7.9°C
QNH1016 hPa
Density Alt-289 ft
Elevation69 ft
Report Wrong Elevation
Raw Report
KHWD 200454Z 06006KT 3SM HZ FU CLR 12/00 A3000 RMK AO2 SLP170
T01220000=

Extra information for KHWD:More info

Metar Taf Metar & Taf Last 4 Metars F.Rules Stats Wind Profile Meteogram Temp Stats Airport Information Weather charts Add Link Nearby VenuesMetar ALERT Operation Metar Decoded Social comments

AIRNAV info for KHWD